Flight Track Log - Related Links

Times and Time Zones

All times are in EDT time to prevent confusion due to time zone crossing. See the AVA30 flight status page for this flight to view local times or setup timezone preferences in your user account.


Time Position Orientation Groundspeed Altitude Reporting Facility
EDT Latitude Longitude Course Direction KTS MPH feet Rate Location/Type
Sun 11:58:31 AM 6.5610 -75.4690 351° North 340 391 14,900  Level FlightAware ADS-B
Sun 11:59:11 AM 6.6270 -75.4800 351° North 374 430 15,400 356 Climbing FlightAware ADS-B
Sun 12:00:12 PM 6.7170 -75.4940 351° North 377 434 15,500 62 Climbing FlightAware ADS-B
Sun 12:00:48 PM 6.7700 -75.5030 350° North 377 434 15,500  Level FlightAware ADS-B
Sun 12:01:24 PM 6.8230 -75.5110 351° North 377 434 15,500  Level FlightAware ADS-B
Sun 12:02:12 PM 6.8930 -75.5220 351° North 377 434 15,500  Level FlightAware ADS-B
Sun 12:02:50 PM 6.9490 -75.5310 351° North 377 434 15,500 2,339 Level FlightAware ADS-B
Sun 12:05:00 PM 7.2044 -75.5905 347° North  Level Estimated
Sun 12:06:00 PM 7.3223 -75.6179 347° North  Level Estimated
Sun 12:06:26 PM 7.4650 -75.6180 347° North 447 514 25,400  Level FlightAware ADS-B
Sun 12:07:11 PM 7.5570 -75.6320 351° North 457 526 26,000 886 Climbing FlightAware ADS-B
Sun 12:07:54 PM 7.6400 -75.6460 351° North 459 528 26,700 988 Climbing FlightAware ADS-B
Sun 12:08:36 PM 7.7390 -75.6620 351° North 464 534 27,400 951 Climbing FlightAware ADS-B
Sun 12:09:16 PM 7.8230 -75.6760 351° North 469 540 28,000 825 Climbing FlightAware ADS-B
Sun 12:09:56 PM 7.9120 -75.6910 351° North 473 544 28,500 706 Climbing FlightAware ADS-B
Sun 12:10:41 PM 8.0090 -75.7070 351° North 480 552 29,000 674 Climbing FlightAware ADS-B
Sun 12:11:25 PM 8.0970 -75.7210 351° North 484 557 29,500 835 Climbing FlightAware ADS-B
Sun 12:12:00 PM 8.1550 -75.7300 351° North 481 554 30,100 913 Climbing FlightAware ADS-B
Sun 12:12:57 PM 8.2920 -75.7530 351° North 478 550 30,900 457 Climbing FlightAware ADS-B
Sun 12:13:45 PM 8.3810 -75.7670 351° North 478 550 30,900 1,758 Level FlightAware ADS-B
Sun 12:14:36 PM 8.5180 -75.7900 351° North 454 522 33,800 1,318 Climbing FlightAware ADS-B
Sun 12:15:57 PM 8.6590 -75.8130 351° North 454 522 33,800  Level FlightAware ADS-B
Sun 12:16:33 PM 8.7220 -75.8230 351° North 454 522 33,800 527 Level FlightAware ADS-B
Sun 12:18:25 PM 8.9690 -75.8640 351° North 439 505 35,100 527 Climbing FlightAware ADS-B
Sun 12:19:01 PM 9.0310 -75.8740 351° North 439 505 35,100  Level FlightAware ADS-B
Sun 12:19:39 PM 9.0960 -75.8840 351° North 439 505 35,100  Level FlightAware ADS-B
Sun 12:22:00 PM 9.3725 -75.9513 346° North  Level Estimated
Sun 12:22:30 PM 9.3870 -75.9310 346° North 439 505 35,100  Level FlightAware ADS-B
Sun 12:23:11 PM 9.5440 -75.9590 350° North 435 501 36,000 563 Climbing FlightAware ADS-B
Sun 12:24:06 PM 9.6390 -75.9750 351° North 436 502 36,000  Level FlightAware ADS-B
Sun 12:24:46 PM 9.7340 -75.9910 351° North 438 504 36,000  Level FlightAware ADS-B
Sun 12:25:26 PM 9.8140 -76.0040 351° North 439 505 36,000  Level FlightAware ADS-B
Sun 12:26:06 PM 9.8940 -76.0170 351° North 440 506 36,000  Level FlightAware ADS-B
Sun 12:26:46 PM 9.9750 -76.0310 350° North 440 506 36,000  Level FlightAware ADS-B
Sun 12:27:31 PM 10.0670 -76.0460 351° North 441 507 36,000  Level FlightAware ADS-B
Sun 12:28:11 PM 10.1450 -76.0590 351° North 441 507 36,000  Level FlightAware ADS-B
Sun 12:29:11 PM 10.2690 -76.0800 351° North 443 510 36,000  Level FlightAware ADS-B
Sun 12:29:51 PM 10.3490 -76.0930 351° North 444 511 36,000  Level FlightAware ADS-B
Sun 12:30:26 PM 10.4220 -76.1050 351° North 444 511 36,000  Level FlightAware ADS-B
Sun 12:30:51 PM 10.4730 -76.1140 350° North 445 512 36,000  Level FlightAware ADS-B
Sun 12:31:31 PM 10.5530 -76.1270 351° North 447 514 36,000  Level FlightAware ADS-B
Sun 12:32:11 PM 10.6360 -76.1410 351° North 448 516 36,000  Level FlightAware ADS-B
Sun 12:32:56 PM 10.7290 -76.1560 351° North 448 516 36,000  Level FlightAware ADS-B
Sun 12:33:26 PM 10.7900 -76.1660 351° North 447 514 36,000  Level FlightAware ADS-B
Sun 12:34:11 PM 10.8810 -76.1820 350° North 447 514 36,000  Level FlightAware ADS-B
Sun 12:34:51 PM 10.9640 -76.1960 351° North 447 514 36,000  Level FlightAware ADS-B
Sun 12:35:26 PM 11.0350 -76.2070 351° North 446 513 36,000  Level FlightAware ADS-B
Sun 12:36:07 PM 11.1180 -76.2210 351° North 446 513 36,000  Level FlightAware ADS-B
Sun 12:36:51 PM 11.2080 -76.2360 351° North 446 513 36,000  Level FlightAware ADS-B
Sun 12:38:04 PM 11.3490 -76.2600 351° North 447 514 36,000  Level FlightAware ADS-B
Sun 12:38:41 PM 11.4260 -76.2730 351° North 450 518 36,000  Level FlightAware ADS-B
Sun 12:39:25 PM 11.5110 -76.2870 351° North 450 518 36,000  Level FlightAware ADS-B
Sun 12:40:08 PM 11.6050 -76.3030 351° North 452 520 36,000  Level FlightAware ADS-B
Sun 12:40:46 PM 11.6930 -76.3180 351° North 453 521 36,000  Level FlightAware ADS-B
Sun 12:41:23 PM 11.7600 -76.3290 351° North 453 521 36,000  Level FlightAware ADS-B
Sun 12:42:10 PM 11.8430 -76.3420 351° North 453 521 36,000  Level FlightAware ADS-B
Sun 12:43:08 PM 11.9450 -76.3580 351° North 453 521 36,000  Level FlightAware ADS-B
Sun 12:43:45 PM 12.0100 -76.3690 351° North 453 521 36,000  Level FlightAware ADS-B
Sun 12:44:37 PM 12.1590 -76.3960 350° North 456 525 36,000  Level FlightAware ADS-B
Sun 12:45:23 PM 12.2400 -76.4090 351° North 456 525 36,000  Level FlightAware ADS-B
Sun 12:46:00 PM 12.3060 -76.4200 351° North 456 525 36,000  Level FlightAware ADS-B
Sun 12:46:48 PM 12.3910 -76.4330 352° North 456 525 36,000  Level FlightAware ADS-B
Sun 12:47:24 PM 12.4550 -76.4440 350° North 456 525 36,000  Level FlightAware ADS-B
Sun 12:48:13 PM 12.5410 -76.4580 351° North 456 525 36,000  Level FlightAware ADS-B
Sun 12:48:49 PM 12.6050 -76.4680 351° North 456 525 36,000  Level FlightAware ADS-B
Sun 12:49:37 PM 12.6900 -76.4820 351° North 456 525 36,000  Level FlightAware ADS-B
Sun 12:50:13 PM 12.7540 -76.4920 351° North 456 525 36,000  Level FlightAware ADS-B
Sun 12:51:01 PM 12.8390 -76.5060 351° North 456 525 36,000  Level FlightAware ADS-B
Sun 12:51:37 PM 12.9030 -76.5160 351° North 456 525 36,000  Level FlightAware ADS-B
Sun 12:52:25 PM 12.9880 -76.5300 351° North 456 525 36,000  Level FlightAware ADS-B
Sun 12:53:02 PM 13.0530 -76.5410 351° North 456 525 36,000  Level FlightAware ADS-B
Sun 12:53:49 PM 13.1360 -76.5540 351° North 456 525 36,000 -261 Level FlightAware ADS-B
Sun 12:56:00 PM 13.3912 -76.6241 345° North  Level Estimated
Sun 12:57:00 PM 13.5081 -76.6562 345° North  Level Estimated
Sun 12:58:00 PM 13.6250 -76.6884 345° North  Level Estimated
Sun 12:59:00 PM 13.7419 -76.7207 345° North  Level Estimated
Sun 01:00:00 PM 13.8588 -76.7529 345° North  Level Estimated
Sun 01:01:00 PM 13.9756 -76.7852 345° North  Level Estimated
Sun 01:02:00 PM 14.0925 -76.8175 345° North  Level Estimated
Sun 01:03:00 PM 14.2094 -76.8499 345° North  Level Estimated
Sun 01:04:00 PM 14.3262 -76.8822 345° North  Level Estimated
Sun 01:05:00 PM 14.4431 -76.9147 345° North  Level Estimated
Sun 01:06:00 PM 14.5599 -76.9471 345° North  Level Estimated
Sun 01:07:00 PM 14.6768 -76.9796 345° North  Level Estimated
Sun 01:08:00 PM 14.7936 -77.0121 345° North  Level Estimated
Sun 01:09:00 PM 14.9105 -77.0447 345° North  Level Estimated
Sun 01:10:00 PM 15.0273 -77.0772 345° North  Level Estimated
Sun 01:11:00 PM 15.1441 -77.1099 345° North  Level Estimated
Sun 01:12:00 PM 15.2609 -77.1425 345° North  Level Estimated
Sun 01:13:00 PM 15.3778 -77.1752 345° North  Level Estimated
Sun 01:14:00 PM 15.4946 -77.2080 345° North  Level Estimated
Sun 01:15:00 PM 15.6114 -77.2407 345° North  Level Estimated
Sun 01:16:00 PM 15.7282 -77.2736 345° North  Level Estimated
Sun 01:17:00 PM 15.8450 -77.3064 345° North  Level Estimated
Sun 01:18:00 PM 15.9618 -77.3393 345° North  Level Estimated
Sun 01:19:00 PM 16.0786 -77.3722 345° North  Level Estimated
Sun 01:20:00 PM 16.1953 -77.4052 345° North  Level Estimated
Sun 01:21:00 PM 16.3121 -77.4382 345° North  Level Estimated
Sun 01:22:00 PM 16.4289 -77.4712 345° North  Level Estimated
Sun 01:23:00 PM 16.5457 -77.5043 345° North  Level Estimated
Sun 01:24:00 PM 16.6624 -77.5374 345° North  Level Estimated
Sun 01:25:00 PM 16.7792 -77.5706 345° North  Level Estimated
Sun 01:26:00 PM 16.8959 -77.6038 345° North  Level Estimated
Sun 01:27:00 PM 17.0127 -77.6370 345° North  Level Estimated
Sun 01:28:00 PM 17.1294 -77.6703 345° North  Level Estimated
Sun 01:29:00 PM 17.2462 -77.7036 345° North  Level Estimated
Sun 01:30:00 PM 17.3629 -77.7370 345° North  Level Estimated
Sun 01:31:00 PM 17.4796 -77.7704 345° North  Level Estimated
Sun 01:32:00 PM 17.5963 -77.8038 345° North  Level Estimated
Sun 01:33:00 PM 17.7131 -77.8373 345° North  Level Estimated
Sun 01:34:00 PM 17.8298 -77.8709 345° North  Level Estimated
Sun 01:35:00 PM 17.9465 -77.9045 345° North  Level Estimated
Sun 01:36:00 PM 18.0632 -77.9381 345° North  Level Estimated
Sun 01:37:00 PM 18.1798 -77.9718 345° North  Level Estimated
Sun 01:38:00 PM 18.2965 -78.0055 345° North  Level Estimated
Sun 01:39:00 PM 18.4132 -78.0392 345° North  Level Estimated
Sun 01:40:00 PM 18.5299 -78.0731 345° North  Level Estimated
Sun 01:41:00 PM 18.6466 -78.1069 345° North  Level Estimated
Sun 01:42:00 PM 18.7632 -78.1408 345° North  Level Estimated
Sun 01:43:00 PM 18.8799 -78.1748 345° North  Level Estimated
Sun 01:44:00 PM 18.9965 -78.2088 345° North  Level Estimated
Sun 01:45:00 PM 19.1132 -78.2428 345° North  Level Estimated
Sun 01:46:00 PM 19.2298 -78.2769 345° North  Level Estimated
Sun 01:47:00 PM 19.3464 -78.3110 345° North  Level Estimated
Sun 01:48:00 PM 19.4631 -78.3452 345° North  Level Estimated
Sun 01:49:00 PM 19.5797 -78.3795 345° North  Level Estimated
Sun 01:50:00 PM 19.6963 -78.4137 345° North  Level Estimated
Sun 01:51:00 PM 19.8129 -78.4481 345° North  Level Estimated
Sun 01:52:00 PM 19.9295 -78.4825 345° North  Level Estimated
Sun 01:53:00 PM 20.0461 -78.5169 344° North  Level Estimated
Sun 01:54:00 PM 20.1627 -78.5514 344° North  Level Estimated
Sun 01:55:00 PM 20.2793 -78.5860 344° North  Level Estimated
Sun 01:56:00 PM 20.3958 -78.6205 344° North  Level Estimated
Sun 01:57:00 PM 20.5124 -78.6552 344° North  Level Estimated
Sun 01:58:00 PM 20.6290 -78.6899 344° North  Level Estimated
Sun 01:59:00 PM 20.7455 -78.7246 344° North  Level Estimated
Sun 02:00:00 PM 20.8620 -78.7595 344° North  Level Estimated
Sun 02:01:00 PM 20.9786 -78.7943 344° North  Level Estimated
Sun 02:02:00 PM 21.0951 -78.8292 344° North  Level Estimated
Sun 02:03:00 PM 21.2116 -78.8642 344° North  Level Estimated
Sun 02:04:00 PM 21.3281 -78.8992 344° North  Level Estimated
Sun 02:05:00 PM 21.4447 -78.9343 344° North  Level Estimated
Sun 02:06:00 PM 21.5612 -78.9694 344° North  Level Estimated
Sun 02:07:00 PM 21.6777 -79.0046 344° North  Level Estimated
Sun 02:08:00 PM 21.7941 -79.0399 344° North  Level Estimated
Sun 02:09:00 PM 21.9106 -79.0752 344° North  Level Estimated
Sun 02:10:00 PM 22.0271 -79.1105 344° North  Level Estimated
Sun 02:11:00 PM 22.1436 -79.1460 344° North  Level Estimated
Sun 02:12:00 PM 22.2600 -79.1814 344° North  Level Estimated
Sun 02:13:00 PM 22.3765 -79.2170 344° North  Level Estimated
Sun 02:14:00 PM 22.4929 -79.2526 344° North  Level Estimated
Sun 02:15:00 PM 22.6093 -79.2882 344° North  Level Estimated
Sun 02:16:00 PM 22.7257 -79.3240 344° North  Level Estimated
Sun 02:17:00 PM 22.8422 -79.3597 344° North  Level Estimated
Sun 02:18:00 PM 22.9586 -79.3956 344° North  Level Estimated
Sun 02:19:00 PM 23.0750 -79.4315 344° North  Level Estimated
Sun 02:20:00 PM 23.1914 -79.4675 344° North  Level Estimated
Sun 02:21:00 PM 23.3078 -79.5035 344° North  Level Estimated
Sun 02:22:00 PM 23.4241 -79.5396 344° North  Level Estimated
Sun 02:23:00 PM 23.5405 -79.5757 344° North  Level Estimated
Sun 02:24:00 PM 23.6569 -79.6120 344° North  Level Estimated
Sun 02:25:00 PM 23.7732 -79.6482 344° North  Level Estimated
Sun 02:26:00 PM 23.8895 -79.6846 344° North  Level Estimated
Sun 02:27:00 PM 24.0059 -79.7210 344° North  Level Estimated
Sun 02:28:00 PM 24.1222 -79.7575 344° North  Level Estimated
Sun 02:29:00 PM 24.2385 -79.7940 344° North  Level Estimated
Sun 02:30:00 PM 24.3548 -79.8306 344° North  Level Estimated
Sun 02:31:00 PM 24.4711 -79.8673 344° North  Level Estimated
Sun 02:32:00 PM 24.5874 -79.9041 344° North  Level Estimated
Sun 02:33:00 PM 24.7037 -79.9409 344° North  Level Estimated
Sun 02:34:00 PM 24.8200 -79.9778 344° North  Level Estimated
Sun 02:35:00 PM 24.9362 -80.0147 344° North  Level Estimated
Sun 02:36:00 PM 25.0525 -80.0518 344° North  Level Estimated
Sun 02:37:00 PM 25.1687 -80.0889 344° North  Level Estimated
Sun 02:38:00 PM 25.2850 -80.1260 344° North  Level Estimated
Sun 02:39:00 PM 25.4012 -80.1633 344° North  Level Estimated
Sun 02:40:00 PM 25.5174 -80.2006 344° North  Level Estimated
Sun 02:40:31 PM 25.8080 -80.2370 344° North 221 254 7,900  Level FlightAware ADS-B
Sun 02:40:57 PM 25.8290 -80.2530 326° Northwest 215 247 7,900 -120 Level FlightAware ADS-B
Sun 02:41:21 PM 25.8490 -80.2700 323° Northwest 220 253 7,800 -667 Descending FlightAware ADS-B
Sun 02:41:42 PM 25.8550 -80.2900 288° West 217 250 7,400 -1,174 Descending FlightAware ADS-B
Sun 02:42:07 PM 25.8580 -80.3180 277° West 217 250 6,900 -1,111 Descending FlightAware ADS-B
Sun 02:42:36 PM 25.8630 -80.3510 280° West 211 243 6,400 -1,111 Descending FlightAware ADS-B
Sun 02:43:01 PM 25.8690 -80.3780 284° West 212 244 5,900 -1,125 Descending FlightAware ADS-B
Sun 02:44:12 PM 25.8660 -80.4540 268° West 206 237 4,600 -950 Descending FlightAware ADS-B
Sun 02:44:42 PM 25.8580 -80.4830 253° West 189 217 4,300 -724 Descending FlightAware ADS-B
Sun 02:45:10 PM 25.8480 -80.5060 244° Southwest 186 214 3,900 -571 Descending FlightAware ADS-B
Sun 02:45:24 PM 25.8450 -80.5210 257° West 186 214 3,900 -714 Level FlightAware ADS-B
Sun 02:45:52 PM 25.8560 -80.5400 303° West 187 215 3,400 -931 Descending FlightAware ADS-B
Sun 02:46:22 PM 25.8800 -80.5330 15° North 184 212 3,000 -750 Descending FlightAware ADS-B
Sun 02:46:32 PM 25.8840 -80.5230 66° East 184 212 2,900 -250 Descending FlightAware ADS-B
Sun 02:46:46 PM 25.8860 -80.5100 80° East 185 213 2,900  Level FlightAware ADS-B
Sun 02:47:31 PM 25.8830 -80.4690 95° East 182 209 2,900 -179 Level FlightAware ADS-B
Sun 02:47:53 PM 25.8760 -80.4520 115° Southeast 181 208 2,700 -750 Descending FlightAware ADS-B
Sun 02:48:27 PM 25.8610 -80.4240 121° Southeast 180 207 2,200 -938 Descending FlightAware ADS-B
Sun 02:48:57 PM 25.8480 -80.3980 119° Southeast 180 207 1,700 -857 Descending FlightAware ADS-B
Sun 02:49:23 PM 25.8380 -80.3780 119° Southeast 167 192 1,400 -778 Descending FlightAware ADS-B
Sun 02:49:51 PM 25.8280 -80.3590 120° Southeast 148 170 1,000 -824 Descending FlightAware ADS-B
Sun 02:50:14 PM 25.8200 -80.3420 118° Southeast 152 175 700 -878 Descending FlightAware ADS-B
Sun 02:50:32 PM 25.8130 -80.3290 121° Southeast 152 175 400 -783 Descending FlightAware ADS-B
Sun 02:51:00 PM 25.8040 -80.3110 119° Southeast 149 171 100 -643 Descending FlightAware ADS-B
Sun 02:51:28 PM 25.7950 -80.2930 119° Southeast 130 150 -214 Descending FlightAware ADS-B
Sun 02:51:44 PM 25.7910 -80.2860 122° Southeast 70 81  Level FlightAware ADS-B
Sun 02:52:36 PM 25.7900 -80.2810 103° East 18 21  Level FlightAware ADS-B
Sun 02:53:08 PM 25.7890 -80.2800 138° Southeast 23 26  Level FlightAware ADS-B
Sun 02:53:28 PM 25.7890 -80.2790 90° East 28 32  Level FlightAware ADS-B
Sun 02:54:14 PM 25.7890 -80.2760 90° East 33 38  Level FlightAware ADS-B
Sun 02:54:32 PM 25.7890 -80.2750 90° East 25 29  Level FlightAware ADS-B
Sun 02:54:40 PM 25.7900 -80.2750 360° North 26 30  Level FlightAware ADS-B
Sun 02:55:14 PM 25.7920 -80.2750 360° North 24 28  Level FlightAware ADS-B
Sun 02:56:32 PM 25.7920 -80.2740 90° East 9 10  Level FlightAware ADS-B
Sun 02:59:00 PM 25.7833 -80.2833 350° North  Level FlightAware Approximate
Sun 03:00:00 PM 25.7954 -80.2901 350° North  Level Estimated

Login

Don't have an account? Register now (free) for customized features, flight alerts, and more!